Time;durP1;ratioP1;P1;durP2;ratioP2;P2;SDS_P1;SDS_P2;PMS_P1;PMS_P2;Temp;Humidity;BMP_temperature;BMP_pressure;BME280_temperature;BME280_humidity;BME280_pressure;Samples;Min_cycle;Max_cycle;Signal;HPM_P1;HPM_P2
2023/08/22 00:00:55;;;;;;;13.80;8.00;;;;;;;-142.57;53.79;115900.28;5035441;28;20376;-84
2023/08/22 00:03:21;;;;;;;14.35;7.78;;;;;;;-142.57;53.41;115900.28;5035404;28;20442;-82
2023/08/22 00:05:46;;;;;;;13.27;8.02;;;;;;;-142.57;53.87;115900.28;5035277;28;20071;-85
2023/08/22 00:08:12;;;;;;;17.52;8.02;;;;;;;-142.57;54.11;115900.28;5035345;28;20486;-81
2023/08/22 00:10:38;;;;;;;14.52;7.13;;;;;;;-142.57;54.19;115900.28;5018098;28;20044;-83
2023/08/22 00:13:03;;;;;;;14.35;7.90;;;;;;;-142.57;54.49;115900.28;5035944;28;20041;-82
2023/08/22 00:15:29;;;;;;;11.30;8.00;;;;;;;-142.57;54.46;115900.28;5043698;28;20037;-81
2023/08/22 00:17:55;;;;;;;11.05;7.35;;;;;;;-142.57;55.20;115900.28;5039157;28;20068;-81
2023/08/22 00:20:22;;;;;;;18.08;7.57;;;;;;;-142.57;55.29;115900.28;5036028;28;20032;-82
2023/08/22 00:22:48;;;;;;;14.70;7.90;;;;;;;-142.57;54.91;115900.28;5035342;28;20506;-81
2023/08/22 00:25:13;;;;;;;11.48;7.40;;;;;;;-142.57;54.84;115900.28;5019249;28;20065;-84
2023/08/22 00:27:39;;;;;;;12.18;7.60;;;;;;;-142.57;54.61;115900.28;5035158;28;20028;-83
2023/08/22 00:30:05;;;;;;;11.70;8.25;;;;;;;-142.57;55.70;115900.28;5017125;28;20025;-86
2023/08/22 00:32:31;;;;;;;11.77;7.35;;;;;;;-142.57;55.57;115900.28;5016712;28;20033;-83
2023/08/22 00:34:57;;;;;;;10.88;7.88;;;;;;;-142.57;56.12;115900.28;5035000;28;20029;-81
2023/08/22 00:37:23;;;;;;;12.35;7.10;;;;;;;-142.57;55.26;115900.28;5016740;28;20389;-83
2023/08/22 00:39:49;;;;;;;12.38;7.40;;;;;;;-142.57;54.65;115900.28;5034363;28;20044;-85
2023/08/22 00:42:15;;;;;;;11.95;7.38;;;;;;;-142.57;55.07;115900.28;5033922;28;20494;-84
2023/08/22 00:44:40;;;;;;;10.40;6.82;;;;;;;-142.57;54.29;115900.28;5034239;28;20037;-82
2023/08/22 00:47:06;;;;;;;9.48;6.97;;;;;;;-142.57;54.98;115900.28;5034761;28;20044;-83
2023/08/22 00:49:34;;;;;;;8.95;7.30;;;;;;;-142.57;54.46;115900.28;5016463;28;20071;-83
2023/08/22 00:52:01;;;;;;;11.90;7.40;;;;;;;-142.57;55.37;115900.28;5034681;28;20501;-83
2023/08/22 00:54:29;;;;;;;11.05;7.70;;;;;;;-142.57;55.92;115900.28;5016141;28;20091;-82
2023/08/22 00:56:55;;;;;;;16.52;7.85;;;;;;;-142.57;56.41;115900.28;5034785;28;20043;-85
2023/08/22 00:59:25;;;;;;;9.63;7.85;;;;;;;-142.57;56.63;115900.28;5016939;28;20082;-85
2023/08/22 01:01:50;;;;;;;10.75;7.80;;;;;;;-142.57;58.32;115900.28;5034170;28;20022;-82
2023/08/22 01:04:16;;;;;;;14.48;7.93;;;;;;;-142.57;58.08;115900.28;5016679;28;20094;-84
2023/08/22 01:06:58;;;;;;;14.95;7.80;;;;;;;-142.57;58.58;115900.28;5017743;28;20045;-81
2023/08/22 01:09:33;;;;;;;11.38;7.50;;;;;;;-142.57;58.35;115900.28;5018650;28;20080;-83
2023/08/22 01:12:40;;;;;;;12.85;7.93;;;;;;;-142.57;58.18;115900.28;5018138;28;20072;-81
2023/08/22 01:15:18;;;;;;;9.88;7.70;;;;;;;-142.57;58.01;115900.28;5036266;28;20068;-82
2023/08/22 01:17:43;;;;;;;10.57;7.55;;;;;;;-142.57;57.58;115900.28;5034106;28;20443;-83
2023/08/22 01:20:12;;;;;;;10.77;7.80;;;;;;;-142.57;57.32;115900.28;5034426;28;20036;-82
2023/08/22 01:22:41;;;;;;;11.20;7.45;;;;;;;-142.57;56.80;115900.28;5037677;28;20037;-82
2023/08/22 01:25:08;;;;;;;13.45;7.93;;;;;;;-142.57;57.21;115900.28;5034584;28;20367;-83
2023/08/22 01:27:47;;;;;;;8.68;7.53;;;;;;;-142.57;57.45;115900.28;5033890;28;20051;-84
2023/08/22 01:30:22;;;;;;;16.77;7.80;;;;;;;-142.57;57.27;115900.28;5033994;28;20034;-84
2023/08/22 01:32:52;;;;;;;13.57;7.90;;;;;;;-142.57;57.42;115900.28;5040122;28;20124;-82
2023/08/22 01:35:22;;;;;;;12.90;7.85;;;;;;;-142.57;57.07;115900.28;5023415;28;20033;-83
2023/08/22 01:37:51;;;;;;;15.77;8.18;;;;;;;-142.57;57.07;115900.28;5036295;28;20033;-83
2023/08/22 01:40:22;;;;;;;10.18;7.63;;;;;;;-142.57;57.00;115900.28;5034740;28;20038;-88
2023/08/22 01:42:48;;;;;;;11.82;7.10;;;;;;;-142.57;57.15;115900.28;5015818;28;20041;-86
2023/08/22 01:45:13;;;;;;;11.82;8.00;;;;;;;-142.57;57.09;115900.28;5033545;28;20022;-83
2023/08/22 01:47:38;;;;;;;16.95;8.13;;;;;;;-142.57;57.13;115900.28;5033189;28;20041;-82
2023/08/22 01:50:05;;;;;;;10.95;7.75;;;;;;;-142.57;57.14;115900.28;5033281;28;20034;-82
2023/08/22 01:52:31;;;;;;;13.75;7.43;;;;;;;-142.57;56.53;115900.28;5015508;28;20033;-83
2023/08/22 01:54:56;;;;;;;13.43;8.00;;;;;;;-142.57;56.56;115900.28;5016452;28;20396;-81
2023/08/22 01:57:23;;;;;;;13.65;7.32;;;;;;;-142.57;57.19;115900.28;5015532;28;20442;-82
2023/08/22 01:59:49;;;;;;;13.48;7.53;;;;;;;-142.57;56.96;115900.28;5015945;28;20041;-83
2023/08/22 02:02:15;;;;;;;12.05;7.30;;;;;;;-142.57;57.96;115900.28;5034243;28;20048;-84
2023/08/22 02:04:40;;;;;;;11.73;7.30;;;;;;;-142.57;58.72;115900.28;5034263;28;20041;-85
2023/08/22 02:07:06;;;;;;;11.82;8.50;;;;;;;-142.57;58.85;115900.28;5034645;28;20040;-82
2023/08/22 02:09:32;;;;;;;12.75;7.85;;;;;;;-142.57;59.86;115900.28;5015970;28;20075;-82
2023/08/22 02:11:58;;;;;;;11.88;7.85;;;;;;;-142.57;59.61;115900.28;5015240;28;20135;-83
2023/08/22 02:14:23;;;;;;;10.77;8.00;;;;;;;-142.57;59.20;115900.28;5032974;28;20034;-79
2023/08/22 02:16:49;;;;;;;12.43;8.75;;;;;;;-142.57;59.69;115900.28;5033453;28;20042;-82
2023/08/22 02:19:16;;;;;;;12.55;8.32;;;;;;;-142.57;59.76;115900.28;5032892;28;20069;-82
2023/08/22 02:21:42;;;;;;;14.73;9.05;;;;;;;-142.57;60.06;115900.28;5035731;28;20045;-80
2023/08/22 02:24:07;;;;;;;13.32;7.88;;;;;;;-142.57;59.79;115900.28;5019088;28;20417;-83
2023/08/22 02:26:33;;;;;;;12.18;8.27;;;;;;;-142.57;60.34;115900.28;5018910;28;20141;-83
2023/08/22 02:29:00;;;;;;;11.63;8.05;;;;;;;-142.57;59.52;115900.28;5019105;28;20049;-82
2023/08/22 02:31:27;;;;;;;12.98;8.90;;;;;;;-142.57;60.34;115900.28;5018238;28;20375;-83
2023/08/22 02:33:52;;;;;;;14.70;8.63;;;;;;;-142.57;60.55;115900.28;5018640;28;20033;-83
2023/08/22 02:36:18;;;;;;;17.15;9.88;;;;;;;-142.57;60.07;115900.28;5018469;28;20121;-86
2023/08/22 02:38:43;;;;;;;16.23;9.48;;;;;;;-142.57;60.80;115900.28;5036240;28;20371;-85
2023/08/22 02:41:09;;;;;;;13.25;9.55;;;;;;;-142.57;60.28;115900.28;5036350;28;20137;-81
2023/08/22 02:43:34;;;;;;;10.25;8.68;;;;;;;-142.57;60.79;115900.28;5018155;28;20090;-82
2023/08/22 02:46:00;;;;;;;15.18;9.80;;;;;;;-142.57;61.01;115900.28;5036364;28;20048;-82
2023/08/22 02:48:27;;;;;;;12.73;9.57;;;;;;;-142.57;61.07;115900.28;5018426;28;20040;-80
2023/08/22 02:50:53;;;;;;;17.35;10.02;;;;;;;-142.57;61.24;115900.28;5041620;28;20033;-82
2023/08/22 02:53:18;;;;;;;20.45;9.82;;;;;;;-142.57;61.26;115900.28;5025378;28;20048;-83
2023/08/22 02:55:48;;;;;;;18.85;10.30;;;;;;;-142.57;61.57;115900.28;5018556;28;20029;-82
2023/08/22 02:58:15;;;;;;;10.77;9.07;;;;;;;-142.57;62.01;115900.28;5018069;28;20037;-84
2023/08/22 03:00:43;;;;;;;13.50;9.45;;;;;;;-142.57;61.13;115900.28;5018169;28;20090;-83
2023/08/22 03:03:09;;;;;;;13.77;8.85;;;;;;;-142.57;59.83;115900.28;5036728;28;20041;-83
2023/08/22 03:05:34;;;;;;;12.80;8.57;;;;;;;-142.57;59.19;115900.28;5002062;28;20032;-82
2023/08/22 03:08:01;;;;;;;16.42;8.48;;;;;;;-142.57;58.61;115900.28;5018755;28;20045;-81
2023/08/22 03:10:26;;;;;;;16.63;7.60;;;;;;;-142.57;59.06;115900.28;5018686;28;20041;-81
2023/08/22 03:12:54;;;;;;;10.18;7.18;;;;;;;-142.57;58.39;115900.28;5018131;28;20127;-82
2023/08/22 03:15:19;;;;;;;8.98;7.43;;;;;;;-142.57;58.40;115900.28;5018183;28;20120;-84
2023/08/22 03:17:45;;;;;;;11.18;7.45;;;;;;;-142.57;58.30;115900.28;5017096;28;20040;-82
2023/08/22 03:20:11;;;;;;;14.23;7.47;;;;;;;-142.57;58.00;115900.28;5017580;28;20065;-82
2023/08/22 03:22:37;;;;;;;9.52;7.45;;;;;;;-142.57;57.89;115900.28;5017164;28;20029;-81
2023/08/22 03:25:03;;;;;;;9.20;7.13;;;;;;;-142.57;57.74;115900.28;5017097;28;20395;-81
2023/08/22 03:27:31;;;;;;;10.02;6.78;;;;;;;-142.57;57.62;115900.28;5017415;28;20095;-83
2023/08/22 03:29:57;;;;;;;9.95;7.10;;;;;;;-142.57;57.76;115900.28;5035304;28;20033;-84
2023/08/22 03:32:23;;;;;;;12.65;7.30;;;;;;;-142.57;57.53;115900.28;5017007;28;20049;-83
2023/08/22 03:34:49;;;;;;;11.10;6.90;;;;;;;-142.57;58.08;115900.28;5000709;28;20103;-81
2023/08/22 03:37:14;;;;;;;10.35;6.80;;;;;;;-142.57;58.45;115900.28;5015514;28;20380;-80
2023/08/22 03:39:43;;;;;;;10.27;7.43;;;;;;;-142.57;59.53;115900.28;5026180;28;20065;-83
2023/08/22 03:42:10;;;;;;;11.15;7.40;;;;;;;-142.57;60.28;115900.28;5016831;28;20120;-82
2023/08/22 03:44:36;;;;;;;9.18;7.10;;;;;;;-142.57;60.13;115900.28;5015498;28;20133;-80
2023/08/22 03:47:03;;;;;;;10.95;8.10;;;;;;;-142.57;60.17;115900.28;5017113;28;20034;-82
2023/08/22 03:49:35;;;;;;;11.93;7.70;;;;;;;-142.57;59.75;115900.28;5015998;28;20037;-81
2023/08/22 03:52:01;;;;;;;12.52;7.30;;;;;;;-142.57;59.79;115900.28;4999708;28;20033;-81
2023/08/22 03:54:26;;;;;;;9.27;6.93;;;;;;;-142.57;60.38;115900.28;5007255;28;20029;-81
2023/08/22 03:56:52;;;;;;;13.07;7.55;;;;;;;-142.57;60.38;115900.28;5019345;28;20081;-81
2023/08/22 03:59:18;;;;;;;11.90;7.65;;;;;;;-142.57;61.19;115900.28;5012935;28;20084;-83
2023/08/22 04:01:43;;;;;;;10.55;7.47;;;;;;;-142.57;61.75;115900.28;5013264;28;20038;-81
2023/08/22 04:04:09;;;;;;;11.38;8.00;;;;;;;-142.57;61.96;115900.28;4996858;28;20022;-83
2023/08/22 04:06:34;;;;;;;9.00;6.88;;;;;;;-142.57;61.88;115900.28;5014230;28;20041;-81
2023/08/22 04:09:00;;;;;;;16.80;8.00;;;;;;;-142.57;62.05;115900.28;4996778;28;20045;-81
2023/08/22 04:11:26;;;;;;;9.80;7.32;;;;;;;-142.57;62.31;115900.28;4997158;28;20121;-82
2023/08/22 04:13:51;;;;;;;13.57;7.78;;;;;;;-142.57;62.21;115900.28;4997497;28;20109;-82
2023/08/22 04:16:17;;;;;;;13.35;7.28;;;;;;;-142.57;61.81;115900.28;4997413;28;20038;-80
2023/08/22 04:18:43;;;;;;;9.77;7.50;;;;;;;-142.57;61.04;115900.28;4997925;28;20077;-83
2023/08/22 04:21:09;;;;;;;21.30;8.30;;;;;;;-142.57;60.75;115900.28;4997128;28;20037;-82
2023/08/22 04:23:35;;;;;;;13.55;7.18;;;;;;;-142.57;60.80;115900.28;4996948;28;20099;-82
2023/08/22 04:26:01;;;;;;;9.95;7.03;;;;;;;-142.57;61.74;115900.28;4996510;28;20045;-81
2023/08/22 04:28:27;;;;;;;14.20;7.85;;;;;;;-142.57;61.39;115900.28;5014042;28;20399;-80
2023/08/22 04:30:57;;;;;;;10.45;7.78;;;;;;;-142.57;61.74;115900.28;5014383;28;20037;-81
2023/08/22 04:33:22;;;;;;;10.88;7.40;;;;;;;-142.57;61.69;115900.28;5014293;28;20045;-79
2023/08/22 04:35:48;;;;;;;13.90;7.45;;;;;;;-142.57;62.26;115900.28;5015922;28;20489;-83
2023/08/22 04:38:14;;;;;;;12.15;7.40;;;;;;;-142.57;61.89;115900.28;5032441;28;20131;-81
2023/08/22 04:40:45;;;;;;;10.32;8.00;;;;;;;-142.57;62.18;115900.28;5034949;28;20076;-85
2023/08/22 04:43:20;;;;;;;13.00;7.97;;;;;;;-142.57;62.43;115900.28;5033370;28;20455;-85
2023/08/22 04:45:46;;;;;;;16.63;8.02;;;;;;;-142.57;62.51;115900.28;5034324;28;20065;-85
2023/08/22 04:48:12;;;;;;;10.93;7.80;;;;;;;-142.57;61.39;115900.28;5034631;28;20033;-86
2023/08/22 04:50:38;;;;;;;16.20;7.50;;;;;;;-142.57;61.55;115900.28;5034992;28;20393;-82
2023/08/22 04:53:04;;;;;;;9.80;7.82;;;;;;;-142.57;61.79;115900.28;5023775;28;20029;-83
2023/08/22 04:55:29;;;;;;;15.95;8.43;;;;;;;-142.57;62.10;115900.28;5041913;28;20034;-83
2023/08/22 04:57:55;;;;;;;17.33;8.63;;;;;;;-142.57;61.18;115900.28;5042451;28;20073;-81
2023/08/22 05:00:21;;;;;;;19.13;8.25;;;;;;;-142.57;60.86;115900.28;5042363;28;20056;-82
2023/08/22 05:02:46;;;;;;;14.70;7.90;;;;;;;-142.57;60.58;115900.28;4992414;28;20101;-83
2023/08/22 05:05:12;;;;;;;14.07;7.90;;;;;;;-142.57;60.21;115900.28;5004192;28;20038;-85
2023/08/22 05:07:37;;;;;;;18.92;7.80;;;;;;;-142.57;59.21;115900.28;5020052;28;20022;-85
2023/08/22 05:10:05;;;;;;;18.23;8.65;;;;;;;-142.57;59.38;115900.28;5000842;28;20108;-85
2023/08/22 05:12:30;;;;;;;19.55;8.40;;;;;;;-142.57;59.61;115900.28;5001053;28;20056;-84
2023/08/22 05:14:57;;;;;;;21.85;7.53;;;;;;;-142.57;59.90;115900.28;5000978;28;20101;-87
2023/08/22 05:17:22;;;;;;;18.52;8.10;;;;;;;-142.57;59.30;115900.28;4983577;28;20041;-88
2023/08/22 05:19:48;;;;;;;21.15;8.52;;;;;;;-142.57;58.87;115900.28;4999283;28;20030;-86
2023/08/22 05:22:13;;;;;;;16.90;8.05;;;;;;;-142.57;58.20;115900.28;5000039;28;20084;-84
2023/08/22 05:24:39;;;;;;;15.88;8.40;;;;;;;-142.57;57.57;115900.28;5000111;28;20030;-89
2023/08/22 05:27:09;;;;;;;14.65;8.45;;;;;;;-142.57;56.57;115900.28;5000989;28;20129;-88
2023/08/22 05:29:35;;;;;;;20.42;8.00;;;;;;;-142.57;56.16;115900.28;5002101;28;20070;-89
2023/08/22 05:32:00;;;;;;;16.20;8.20;;;;;;;-142.57;55.11;115900.28;5007027;28;20086;-81
2023/08/22 05:34:26;;;;;;;16.70;7.88;;;;;;;-142.57;54.60;115900.28;5004044;28;20100;-86
2023/08/22 05:36:52;;;;;;;12.88;8.02;;;;;;;-142.57;53.20;115900.28;5005828;28;20130;-86
2023/08/22 05:39:19;;;;;;;12.43;7.88;;;;;;;-142.57;52.05;115900.28;4997959;28;20046;-89
2023/08/22 05:41:44;;;;;;;16.60;8.13;;;;;;;-142.57;51.59;115900.28;5017945;28;20033;-87
2023/08/22 05:44:11;;;;;;;18.50;7.93;;;;;;;-142.57;52.10;115900.28;5017487;28;20029;-87
2023/08/22 05:46:37;;;;;;;18.98;8.27;;;;;;;-142.57;52.33;115900.28;5016247;28;20053;-88
2023/08/22 05:49:04;;;;;;;11.45;7.03;;;;;;;-142.57;49.19;115900.28;5015790;28;20482;-87
2023/08/22 05:51:29;;;;;;;16.63;7.97;;;;;;;-142.57;47.01;115900.28;5035929;28;20044;-85
2023/08/22 05:53:58;;;;;;;14.63;7.05;;;;;;;-142.57;46.13;115900.28;5018988;28;20113;-87
2023/08/22 05:56:24;;;;;;;10.13;6.60;;;;;;;-142.57;47.03;115900.28;5024932;28;20025;-89
2023/08/22 05:58:49;;;;;;;12.98;7.30;;;;;;;-142.57;45.37;115900.28;5024068;28;20179;-89
2023/08/22 06:01:15;;;;;;;17.58;8.10;;;;;;;-142.57;47.93;115900.28;5020534;28;20041;-88
2023/08/22 06:03:43;;;;;;;19.05;7.18;;;;;;;-142.57;45.94;115900.28;5022918;28;20026;-83
2023/08/22 06:06:09;;;;;;;15.88;7.65;;;;;;;-142.57;47.26;115900.28;5044678;28;20033;-86
2023/08/22 06:08:35;;;;;;;11.43;7.35;;;;;;;-142.57;46.63;115900.28;5046742;28;20047;-86
2023/08/22 06:11:00;;;;;;;15.02;7.07;;;;;;;-142.57;45.25;115900.28;5034140;28;20563;-84
2023/08/22 06:13:26;;;;;;;14.02;6.60;;;;;;;-142.57;45.04;115900.28;5038182;28;20394;-86
2023/08/22 06:15:53;;;;;;;9.77;7.25;;;;;;;-142.57;44.47;115900.28;5020650;28;20037;-83
2023/08/22 06:18:20;;;;;;;10.27;7.18;;;;;;;-142.57;44.81;115900.28;5023156;28;20038;-85
2023/08/22 06:20:46;;;;;;;10.15;6.50;;;;;;;-142.57;40.67;115900.28;5041486;28;20048;-88
2023/08/22 06:23:11;;;;;;;13.82;7.28;;;;;;;-142.57;41.05;115900.28;5041093;28;20383;-83
2023/08/22 06:25:37;;;;;;;16.67;6.32;;;;;;;-142.57;39.85;115900.28;5020556;28;20029;-88
2023/08/22 06:28:03;;;;;;;12.32;6.65;;;;;;;-142.57;39.72;115900.28;5021211;28;20046;-90
2023/08/22 06:30:29;;;;;;;11.23;6.53;;;;;;;-142.57;39.13;115900.28;5021940;28;20478;-88
2023/08/22 06:32:54;;;;;;;12.88;6.25;;;;;;;-142.57;39.09;115900.28;5021795;28;20041;-88
2023/08/22 06:35:21;;;;;;;10.52;6.20;;;;;;;-142.57;38.78;115900.28;5022681;28;20124;-90
2023/08/22 06:37:46;;;;;;;11.48;6.07;;;;;;;-142.57;37.78;115900.28;5037752;28;20120;-87
2023/08/22 06:40:12;;;;;;;12.68;6.07;;;;;;;-142.57;37.19;115900.28;5014513;28;20125;-85
2023/08/22 06:42:37;;;;;;;11.48;6.28;;;;;;;-142.57;35.46;115900.28;5032514;28;20026;-86
2023/08/22 06:45:06;;;;;;;8.48;6.20;;;;;;;-142.57;35.72;115900.28;5017991;28;20042;-85
2023/08/22 06:47:32;;;;;;;19.98;5.70;;;;;;;-142.57;34.75;115900.28;5035441;28;20026;-83
2023/08/22 06:49:58;;;;;;;12.48;5.45;;;;;;;-142.57;34.40;115900.28;5019535;28;20021;-84
2023/08/22 06:52:23;;;;;;;8.18;5.50;;;;;;;-142.57;33.44;115900.28;5042230;28;20390;-82
2023/08/22 06:54:57;;;;;;;10.73;5.50;;;;;;;-142.57;33.85;115900.28;5022482;28;20038;-87
2023/08/22 06:57:25;;;;;;;13.98;5.97;;;;;;;-142.57;33.31;115900.28;5037543;28;20033;-87
2023/08/22 06:59:52;;;;;;;11.18;5.72;;;;;;;-142.57;33.27;115900.28;5043266;28;20088;-91
2023/08/22 07:02:20;;;;;;;14.90;6.03;;;;;;;-142.57;33.34;115900.28;5023766;28;20033;-92
2023/08/22 07:05:08;;;;;;;12.95;6.20;;;;;;;-142.57;32.99;115900.28;5039544;28;20030;-89
2023/08/22 07:07:53;;;;;;;9.82;5.53;;;;;;;-142.57;32.17;115900.28;5012331;28;20144;-93
2023/08/22 07:10:25;;;;;;;22.63;4.97;;;;;;;-142.57;32.13;115900.28;5027225;28;20057;-90
2023/08/22 07:12:57;;;;;;;15.15;5.85;;;;;;;-142.57;31.16;115900.28;5044059;28;20450;-91
2023/08/22 07:15:23;;;;;;;15.23;6.38;;;;;;;-142.57;30.17;115900.28;5027126;28;20064;-91
2023/08/22 07:17:48;;;;;;;10.20;5.53;;;;;;;-142.57;31.05;115900.28;5024916;23;20049;-88
2023/08/22 07:20:14;;;;;;;9.45;6.28;;;;;;;-142.57;30.60;115900.28;5038557;28;20037;-90
2023/08/22 07:22:39;;;;;;;19.20;5.97;;;;;;;-142.57;31.19;115900.28;5020296;28;20038;-88
2023/08/22 07:25:05;;;;;;;12.02;6.32;;;;;;;-142.57;30.91;115900.28;5038038;28;20395;-87
2023/08/22 07:27:31;;;;;;;11.25;6.32;;;;;;;-142.57;30.89;115900.28;5036414;28;20390;-85
2023/08/22 07:29:57;;;;;;;15.82;6.35;;;;;;;-142.57;30.71;115900.28;5037116;28;20036;-82
2023/08/22 07:32:22;;;;;;;24.17;7.72;;;;;;;-142.57;31.40;115900.28;5038068;28;20104;-87
2023/08/22 07:34:48;;;;;;;14.63;7.15;;;;;;;-142.57;31.61;115900.28;5029526;28;20040;-87
2023/08/22 07:37:14;;;;;;;12.60;6.60;;;;;;;-142.57;30.64;115900.28;5015904;28;20032;-88
2023/08/22 07:39:40;;;;;;;14.15;6.85;;;;;;;-142.57;30.80;115900.28;5016385;28;20038;-89
2023/08/22 07:42:06;;;;;;;11.32;6.40;;;;;;;-142.57;30.77;115900.28;5031601;28;20071;-86
2023/08/22 07:44:32;;;;;;;13.30;6.55;;;;;;;-142.57;30.67;115900.28;5034256;28;20026;-87
2023/08/22 07:46:57;;;;;;;15.93;7.60;;;;;;;-142.57;30.33;115900.28;5017085;28;20045;-89
2023/08/22 07:49:26;;;;;;;13.82;7.35;;;;;;;-142.57;30.10;115900.28;5035610;28;20079;-88
2023/08/22 07:51:52;;;;;;;16.77;6.95;;;;;;;-142.57;30.05;115900.28;5035014;28;20029;-89
2023/08/22 07:54:18;;;;;;;11.77;6.93;;;;;;;-142.57;29.55;115900.28;5036046;28;20045;-85
2023/08/22 07:56:47;;;;;;;11.15;6.88;;;;;;;-142.57;28.80;115900.28;5032368;28;20043;-87
2023/08/22 07:59:13;;;;;;;13.02;6.90;;;;;;;-142.57;29.11;115900.28;5045359;28;20482;-81
2023/08/22 08:01:41;;;;;;;14.45;7.25;;;;;;;-142.57;30.27;115900.28;5038274;28;20386;-83
2023/08/22 08:04:08;;;;;;;11.90;6.50;;;;;;;-142.57;29.32;115900.28;5039015;28;20061;-90
2023/08/22 08:06:34;;;;;;;12.63;6.22;;;;;;;-142.57;30.06;115900.28;5040955;28;20119;-82
2023/08/22 08:09:01;;;;;;;13.25;7.05;;;;;;;-142.57;29.72;115900.28;5038654;28;20037;-87
2023/08/22 08:11:28;;;;;;;11.90;7.22;;;;;;;-142.57;29.68;115900.28;5038433;28;20048;-90
2023/08/22 08:13:54;;;;;;;14.98;7.13;;;;;;;-142.57;29.76;115900.28;5021938;28;20039;-86
2023/08/22 08:16:20;;;;;;;11.52;7.10;;;;;;;-142.57;29.63;115900.28;5039272;28;20041;-83
2023/08/22 08:18:46;;;;;;;10.95;7.00;;;;;;;-142.57;29.07;115900.28;5045380;28;20034;-90
2023/08/22 08:21:12;;;;;;;12.55;6.32;;;;;;;-142.57;28.74;115900.28;5029229;28;20041;-86
2023/08/22 08:23:37;;;;;;;15.95;7.70;;;;;;;-142.57;28.54;115900.28;5046433;28;20029;-87
2023/08/22 08:26:04;;;;;;;14.40;6.25;;;;;;;-142.57;28.97;115900.28;5029333;28;20041;-87
2023/08/22 08:28:31;;;;;;;23.13;6.38;;;;;;;-142.57;29.20;115900.28;5046007;28;20042;-85
2023/08/22 08:30:56;;;;;;;15.82;7.18;;;;;;;-142.57;28.76;115900.28;5045190;28;20036;-87
2023/08/22 08:33:22;;;;;;;13.23;6.47;;;;;;;-142.57;28.69;115900.28;5022509;28;20062;-90
2023/08/22 08:35:48;;;;;;;19.52;7.20;;;;;;;-142.57;28.66;115900.28;5044435;28;20029;-88
2023/08/22 08:38:14;;;;;;;25.60;7.60;;;;;;;-142.57;28.89;115900.28;5053725;28;20033;-86
2023/08/22 08:40:42;;;;;;;20.15;8.10;;;;;;;-142.57;28.63;115900.28;5029669;28;20041;-82
2023/08/22 08:43:08;;;;;;;20.15;9.20;;;;;;;-142.57;30.03;115900.28;5047848;28;20033;-85
2023/08/22 08:45:34;;;;;;;15.23;8.77;;;;;;;-142.57;30.26;115900.28;5040886;28;20540;-90
2023/08/22 08:48:02;;;;;;;14.60;7.35;;;;;;;-142.57;30.04;115900.28;5041578;28;20045;-87
2023/08/22 08:50:30;;;;;;;21.85;7.78;;;;;;;-142.57;29.78;115900.28;5040691;28;20032;-83
2023/08/22 08:52:56;;;;;;;21.42;7.40;;;;;;;-142.57;29.55;115900.28;5040601;28;20049;-90
2023/08/22 08:55:22;;;;;;;15.00;7.07;;;;;;;-142.57;29.15;115900.28;5044980;28;20057;-85
2023/08/22 08:57:48;;;;;;;12.75;7.25;;;;;;;-142.57;28.81;115900.28;5048025;28;20125;-87
2023/08/22 09:00:15;;;;;;;12.48;6.80;;;;;;;-142.57;29.72;115900.28;5028948;28;20041;-90
2023/08/22 09:02:40;;;;;;;13.77;7.05;;;;;;;-142.57;29.10;115900.28;5040324;28;20060;-86
2023/08/22 09:05:06;;;;;;;14.15;7.50;;;;;;;-142.57;29.39;115900.28;5040900;28;20033;-85
2023/08/22 09:07:32;;;;;;;13.30;6.95;;;;;;;-142.57;29.49;115900.28;5041911;28;20029;-90
2023/08/22 09:10:01;;;;;;;12.38;6.40;;;;;;;-142.57;29.02;115900.28;5046159;28;20038;-85
2023/08/22 09:13:03;;;;;;;11.73;6.43;;;;;;;-142.57;28.85;115900.28;5032458;28;20057;-88
2023/08/22 09:15:30;;;;;;;14.35;6.65;;;;;;;-142.57;29.78;115900.28;5035019;28;20038;-82
2023/08/22 09:17:56;;;;;;;12.48;7.10;;;;;;;-142.57;30.36;115900.28;5037472;28;20038;-90
2023/08/22 09:20:22;;;;;;;15.20;5.85;;;;;;;-142.57;29.64;115900.28;5049459;28;20047;-86
2023/08/22 09:22:48;;;;;;;15.70;6.85;;;;;;;-142.57;29.06;115900.28;5041247;28;20077;-88
2023/08/22 09:25:17;;;;;;;17.17;7.22;;;;;;;-142.57;28.49;115900.28;5007871;28;20097;-88
2023/08/22 09:27:49;;;;;;;14.85;6.47;;;;;;;-142.57;28.96;115900.28;5036650;28;20034;-82
2023/08/22 09:30:20;;;;;;;18.33;6.55;;;;;;;-142.57;29.41;115900.28;5039662;28;20042;-90
2023/08/22 09:32:58;;;;;;;11.93;6.45;;;;;;;-142.57;29.32;115900.28;5044158;28;20104;-90
2023/08/22 09:35:34;;;;;;;10.50;6.47;;;;;;;-142.57;28.59;115900.28;5042521;28;20498;-90
2023/08/22 09:38:08;;;;;;;12.75;6.45;;;;;;;-142.57;28.32;115900.28;5023366;28;20410;-89
2023/08/22 09:40:34;;;;;;;20.73;6.35;;;;;;;-142.57;28.37;115900.28;5042505;28;20034;-90
2023/08/22 09:43:09;;;;;;;14.90;6.13;;;;;;;-142.57;28.31;115900.28;5045236;28;20505;-92
2023/08/22 09:45:42;;;;;;;16.08;6.07;;;;;;;-142.57;28.93;115900.28;5038655;28;20437;-91
2023/08/22 09:48:30;;;;;;;12.85;6.38;;;;;;;-142.57;28.79;115900.28;5034762;28;20049;-90
2023/08/22 09:51:02;;;;;;;12.70;6.20;;;;;;;-142.57;28.70;115900.28;5024676;28;20029;-91
2023/08/22 09:53:29;;;;;;;11.82;6.65;;;;;;;-142.57;28.53;115900.28;5046209;28;20433;-92
2023/08/22 09:56:13;;;;;;;7.65;5.82;;;;;;;-142.57;28.26;115900.28;5051638;28;20087;-90
2023/08/22 09:59:37;;;;;;;13.98;6.38;;;;;;;-142.57;29.03;115900.28;5054279;28;20045;-95
2023/08/22 10:05:29;;;;;;;9.27;6.63;;;;;;;-142.57;28.59;115900.28;5669166;22;20046;-90
2023/08/22 10:16:11;;;;;;;11.52;5.20;;;;;;;-142.57;26.87;115900.28;4980970;22;20058;-92
2023/08/22 10:18:42;;;;;;;11.38;5.93;;;;;;;-142.57;25.94;115900.28;5011443;28;20093;-92
2023/08/22 10:21:17;;;;;;;9.52;5.65;;;;;;;-142.57;25.79;115900.28;4982777;28;20547;-88
2023/08/22 10:23:51;;;;;;;9.88;5.45;;;;;;;-142.57;26.89;115900.28;4974177;28;20046;-91
2023/08/22 10:26:25;;;;;;;11.20;5.63;;;;;;;-142.57;27.22;115900.28;4987560;28;20041;-89
2023/08/22 10:29:19;;;;;;;16.15;6.25;;;;;;;-142.57;26.99;115900.28;4971081;28;20049;-89
2023/08/22 10:32:14;;;;;;;12.30;5.75;;;;;;;-142.57;26.74;115900.28;5000737;28;20058;-85
2023/08/22 10:34:39;;;;;;;12.00;5.82;;;;;;;-142.57;27.09;115900.28;4929102;28;20052;-88
2023/08/22 10:37:06;;;;;;;11.18;5.63;;;;;;;-142.57;26.96;115900.28;4984432;28;20065;-89
2023/08/22 10:39:57;;;;;;;7.53;5.47;;;;;;;-142.57;25.86;115900.28;5006221;28;20094;-86
2023/08/22 10:42:24;;;;;;;13.52;5.55;;;;;;;-142.57;26.11;115900.28;4995888;28;20054;-89
2023/08/22 10:44:58;;;;;;;11.13;5.55;;;;;;;-142.57;26.52;115900.28;4995560;28;20053;-89
2023/08/22 10:47:39;;;;;;;9.63;6.15;;;;;;;-142.57;26.52;115900.28;4988242;28;20447;-88
2023/08/22 10:50:21;;;;;;;12.50;5.47;;;;;;;-142.57;25.83;115900.28;4987971;28;20058;-91
2023/08/22 10:52:46;;;;;;;12.07;5.60;;;;;;;-142.57;25.93;115900.28;4985632;28;20050;-90
2023/08/22 10:55:13;;;;;;;10.32;5.40;;;;;;;-142.57;26.36;115900.28;5006021;28;20053;-92
2023/08/22 10:57:45;;;;;;;12.57;5.68;;;;;;;-142.57;25.47;115900.28;5011175;28;20077;-89
2023/08/22 11:00:19;;;;;;;13.13;5.35;;;;;;;-142.57;25.49;115900.28;5003889;28;20113;-89
2023/08/22 11:02:51;;;;;;;11.70;6.07;;;;;;;-142.57;25.99;115900.28;4986832;28;20034;-92
2023/08/22 11:05:17;;;;;;;9.00;5.93;;;;;;;-142.57;25.93;115900.28;5005234;28;20034;-89
2023/08/22 11:07:48;;;;;;;10.52;5.85;;;;;;;-142.57;25.83;115900.28;4954309;28;20045;-91
2023/08/22 11:10:18;;;;;;;11.48;6.13;;;;;;;-142.57;25.34;115900.28;4990906;28;20069;-90
2023/08/22 11:12:45;;;;;;;9.23;5.85;;;;;;;-142.57;25.28;115900.28;4989829;28;20054;-91
2023/08/22 11:15:11;;;;;;;10.38;5.68;;;;;;;-142.57;24.96;115900.28;4969154;28;20122;-89
2023/08/22 11:17:43;;;;;;;8.65;5.38;;;;;;;-142.57;25.17;115900.28;5001376;28;20045;-90